Arcadia, Missouri
Current Conditions -  °F | °C
As of 2:15 PM on Monday 24 Nov 2014 (Local Time) from KFAM Reporting Station
Broken Clouds Broken Clouds  
Wind Chill:   Ceiling: 5000
Heat Index:   Visibility: 10mi
Dew Point: -3°   Wind: 17mph
Humidity: 46%   Direction: 210°SSW
Pressure: 29.78"   Gusts: 24mph
Location:  37.59°N, 90.63°W
Report Text: KFAM 242015Z AUTO 21015G21KT 10SM BKN050 08/M03 A2978 RMK AO1
Loading
Personal Weather Stations






























Interactive Weather Map New forecast layout! Learn more

10-Day Weather Forecast

Advertisements
Track Severe Weather on mobile